Time;durP1;ratioP1;P1;durP2;ratioP2;P2;SDS_P1;SDS_P2;PMS_P1;PMS_P2;Temp;Humidity;BMP_temperature;BMP_pressure;BME280_temperature;BME280_humidity;BME280_pressure;Samples;Min_cycle;Max_cycle;Signal;HPM_P1;HPM_P2
2021/10/20 00:02:04;;;;;;;;;;;;;;;13.69;100.00;100975.72;4879519;29;19931;-48
2021/10/20 00:04:31;;;;;;;;;;;;;;;13.72;99.83;100972.03;4877711;29;21114;-51
2021/10/20 00:06:59;;;;;;;;;;;;;;;13.66;99.91;100966.22;4861126;29;19927;-47
2021/10/20 00:09:26;;;;;;;;;;;;;;;13.64;99.70;100968.13;4877017;29;20402;-51
2021/10/20 00:11:52;;;;;;;;;;;;;;;13.67;99.46;100960.00;4876965;29;19958;-49
2021/10/20 00:14:19;;;;;;;;;;;;;;;13.63;99.32;100957.69;4859906;29;20387;-51
2021/10/20 00:16:46;;;;;;;;;;;;;;;13.72;98.76;100950.88;4878601;29;19928;-58
2021/10/20 00:19:12;;;;;;;;;;;;;;;13.71;98.44;100965.88;4879851;29;19932;-50
2021/10/20 00:21:39;;;;;;;;;;;;;;;13.73;98.27;100955.19;4879735;29;19943;-47
2021/10/20 00:24:06;;;;;;;;;;;;;;;13.66;98.34;100950.38;4879547;29;19932;-50
2021/10/20 00:26:32;;;;;;;;;;;;;;;13.60;98.63;100944.72;4877706;29;19983;-51
2021/10/20 00:28:59;;;;;;;;;;;;;;;13.56;99.05;100935.34;4876427;29;19927;-51
2021/10/20 00:31:25;;;;;;;;;;;;;;;13.53;98.91;100934.59;4878788;29;20387;-57
2021/10/20 00:33:52;;;;;;;;;;;;;;;13.50;98.93;100937.47;4879481;29;19935;-57
2021/10/20 00:36:19;;;;;;;;;;;;;;;13.55;98.46;100931.84;4862995;29;19956;-57
2021/10/20 00:38:46;;;;;;;;;;;;;;;13.53;98.80;100934.59;4863310;29;20338;-58
2021/10/20 00:41:12;;;;;;;;;;;;;;;13.52;98.74;100935.59;4879538;29;19939;-57
2021/10/20 00:43:41;;;;;;;;;;;;;;;13.53;98.85;100931.97;4876172;29;19935;-58
2021/10/20 00:46:11;;;;;;;;;;;;;;;13.53;98.01;100924.03;4875868;29;19932;-57
2021/10/20 00:48:38;;;;;;;;;;;;;;;13.58;97.60;100915.78;4879464;29;19927;-58
2021/10/20 00:51:04;;;;;;;;;;;;;;;13.57;97.44;100902.69;4877591;29;20319;-58
2021/10/20 00:53:31;;;;;;;;;;;;;;;13.54;97.83;100901.13;4877470;29;20412;-58
2021/10/20 00:55:58;;;;;;;;;;;;;;;13.63;96.73;100900.41;4859752;29;19927;-58
2021/10/20 00:58:24;;;;;;;;;;;;;;;13.64;96.88;100902.06;4877400;29;19928;-58
2021/10/20 01:00:51;;;;;;;;;;;;;;;13.58;97.54;100897.28;4874001;29;19935;-58
2021/10/20 01:03:18;;;;;;;;;;;;;;;13.57;97.09;100890.31;4876961;29;19963;-58
2021/10/20 01:05:45;;;;;;;;;;;;;;;13.54;97.36;100874.69;4879481;29;20376;-58
2021/10/20 01:08:11;;;;;;;;;;;;;;;13.53;97.31;100876.47;4862775;29;19934;-58
2021/10/20 01:10:38;;;;;;;;;;;;;;;13.61;96.39;100883.81;4879119;29;19932;-58
2021/10/20 01:13:05;;;;;;;;;;;;;;;13.70;95.66;100876.97;4879183;29;19931;-57
2021/10/20 01:15:32;;;;;;;;;;;;;;;13.64;95.94;100880.94;4879069;29;19928;-58
2021/10/20 01:17:59;;;;;;;;;;;;;;;13.57;96.79;100882.38;4877835;29;20035;-58
2021/10/20 01:20:28;;;;;;;;;;;;;;;13.75;95.22;100872.16;4877780;29;19928;-58
2021/10/20 01:22:55;;;;;;;;;;;;;;;13.75;94.95;100863.41;4878891;29;19927;-58
2021/10/20 01:25:21;;;;;;;;;;;;;;;13.71;95.26;100854.03;4877957;29;20258;-47
2021/10/20 01:27:49;;;;;;;;;;;;;;;13.65;95.22;100858.00;4879013;29;20329;-49
2021/10/20 01:30:15;;;;;;;;;;;;;;;13.75;94.70;100850.19;4878096;29;19928;-47
2021/10/20 01:32:42;;;;;;;;;;;;;;;13.74;95.00;100841.41;4876394;29;20000;-58
2021/10/20 01:35:09;;;;;;;;;;;;;;;13.71;95.35;100851.41;4859922;29;19966;-58
2021/10/20 01:37:36;;;;;;;;;;;;;;;13.82;94.10;100844.28;4861241;29;19959;-58
2021/10/20 01:40:04;;;;;;;;;;;;;;;13.87;93.70;100841.28;4862318;29;20308;-58
2021/10/20 01:42:30;;;;;;;;;;;;;;;13.93;93.41;100832.88;4878825;29;19928;-58
2021/10/20 01:44:57;;;;;;;;;;;;;;;13.87;93.65;100838.66;4862068;29;19928;-51
2021/10/20 01:47:24;;;;;;;;;;;;;;;14.00;92.95;100836.72;4878749;29;19999;-46
2021/10/20 01:49:51;;;;;;;;;;;;;;;13.97;92.56;100821.09;4877857;29;19928;-47
2021/10/20 01:52:18;;;;;;;;;;;;;;;14.02;92.84;100821.56;4875910;29;20014;-58
2021/10/20 01:54:44;;;;;;;;;;;;;;;14.12;92.07;100811.06;4878525;29;19939;-58
2021/10/20 01:57:11;;;;;;;;;;;;;;;14.17;90.95;100821.31;4881524;29;19927;-45
2021/10/20 01:59:38;;;;;;;;;;;;;;;14.15;91.79;100813.50;4882352;29;19928;-50
2021/10/20 02:02:13;;;;;;;;;;;;;;;14.16;91.45;100811.69;4880942;29;19932;-47
2021/10/20 02:04:40;;;;;;;;;;;;;;;14.12;92.08;100805.78;4862810;29;19932;-58
2021/10/20 02:07:07;;;;;;;;;;;;;;;14.16;92.31;100804.56;4862941;29;20026;-58
2021/10/20 02:09:34;;;;;;;;;;;;;;;14.13;92.29;100812.75;4879023;29;19928;-58
2021/10/20 02:12:00;;;;;;;;;;;;;;;14.13;92.46;100799.53;4879521;29;19950;-57
2021/10/20 02:14:27;;;;;;;;;;;;;;;14.07;92.28;100792.13;4879077;29;19928;-57
2021/10/20 02:16:54;;;;;;;;;;;;;;;14.11;92.25;100795.34;4882036;29;19931;-51
2021/10/20 02:19:20;;;;;;;;;;;;;;;14.08;92.14;100792.94;4882088;29;20383;-51
2021/10/20 02:21:47;;;;;;;;;;;;;;;14.10;91.92;100786.56;4865364;29;20280;-49
2021/10/20 02:24:14;;;;;;;;;;;;;;;14.24;91.13;100780.16;4881724;29;20391;-51
2021/10/20 02:26:40;;;;;;;;;;;;;;;14.13;92.15;100781.03;4880688;29;19935;-50
2021/10/20 02:29:07;;;;;;;;;;;;;;;14.22;91.33;100773.31;4881912;29;19927;-52
2021/10/20 02:31:34;;;;;;;;;;;;;;;14.14;91.71;100780.06;4881870;29;19935;-49
2021/10/20 02:34:00;;;;;;;;;;;;;;;14.16;91.55;100779.94;4863575;29;19970;-50
2021/10/20 02:36:27;;;;;;;;;;;;;;;14.15;91.06;100770.31;4862413;29;19980;-46
2021/10/20 02:38:54;;;;;;;;;;;;;;;14.12;91.94;100773.22;4864294;29;19935;-47
2021/10/20 02:41:20;;;;;;;;;;;;;;;14.25;91.02;100767.75;4862089;29;19953;-51
2021/10/20 02:43:47;;;;;;;;;;;;;;;14.16;91.34;100766.72;4877372;29;19939;-50
2021/10/20 02:46:14;;;;;;;;;;;;;;;14.11;91.85;100750.38;4875840;29;20319;-49
2021/10/20 02:48:42;;;;;;;;;;;;;;;14.08;91.88;100759.41;4880925;29;20316;-48
2021/10/20 02:51:09;;;;;;;;;;;;;;;14.13;90.94;100751.13;4881310;29;19928;-47
2021/10/20 02:53:36;;;;;;;;;;;;;;;14.17;91.46;100752.53;4881393;29;19990;-49
2021/10/20 02:56:02;;;;;;;;;;;;;;;14.12;91.53;100752.91;4881325;29;19927;-50
2021/10/20 02:58:29;;;;;;;;;;;;;;;14.06;91.77;100747.28;4881275;29;19932;-49
2021/10/20 03:00:56;;;;;;;;;;;;;;;14.05;91.40;100742.97;4864769;29;20289;-48
2021/10/20 03:03:22;;;;;;;;;;;;;;;14.13;91.33;100733.44;4881090;29;19931;-47
2021/10/20 03:05:50;;;;;;;;;;;;;;;14.03;92.16;100727.22;4862519;29;19939;-58
2021/10/20 03:08:17;;;;;;;;;;;;;;;14.05;92.30;100725.28;4878010;29;19938;-57
2021/10/20 03:10:44;;;;;;;;;;;;;;;14.02;92.65;100736.13;4878551;29;19928;-58
2021/10/20 03:13:11;;;;;;;;;;;;;;;14.15;91.25;100723.59;4880999;29;19963;-57
2021/10/20 03:15:37;;;;;;;;;;;;;;;14.03;92.17;100738.63;4864466;29;19927;-58
2021/10/20 03:18:04;;;;;;;;;;;;;;;14.00;92.04;100728.31;4862396;29;19939;-57
2021/10/20 03:20:31;;;;;;;;;;;;;;;14.00;92.40;100724.81;4878330;29;20012;-57
2021/10/20 03:22:57;;;;;;;;;;;;;;;13.99;92.14;100723.16;4864348;29;19928;-57
2021/10/20 03:25:24;;;;;;;;;;;;;;;14.03;91.78;100721.94;4880858;29;19963;-57
2021/10/20 03:27:52;;;;;;;;;;;;;;;14.03;91.97;100704.25;4876227;29;19928;-58
2021/10/20 03:30:19;;;;;;;;;;;;;;;14.00;92.17;100715.09;4876411;29;19935;-57
2021/10/20 03:32:46;;;;;;;;;;;;;;;14.03;91.58;100706.09;4862224;29;19929;-58
2021/10/20 03:35:13;;;;;;;;;;;;;;;14.05;91.90;100712.06;4860236;29;19935;-57
2021/10/20 03:37:40;;;;;;;;;;;;;;;14.08;91.96;100697.75;4858311;29;19987;-58
2021/10/20 03:40:06;;;;;;;;;;;;;;;14.08;91.90;100692.47;4859346;29;19935;-57
2021/10/20 03:42:33;;;;;;;;;;;;;;;14.06;91.60;100684.66;4858754;29;19928;-58
2021/10/20 03:45:00;;;;;;;;;;;;;;;14.06;92.15;100697.03;4874177;29;19935;-58
2021/10/20 03:47:27;;;;;;;;;;;;;;;14.02;92.03;100694.66;4876169;29;20404;-57
2021/10/20 03:49:54;;;;;;;;;;;;;;;13.95;92.42;100693.47;4861668;29;20419;-57
2021/10/20 03:52:20;;;;;;;;;;;;;;;14.01;91.97;100692.13;4874815;29;19928;-58
2021/10/20 03:54:47;;;;;;;;;;;;;;;14.15;90.96;100691.84;4859060;29;19957;-59
2021/10/20 03:57:14;;;;;;;;;;;;;;;14.11;91.87;100702.78;4858938;29;19928;-58
2021/10/20 03:59:42;;;;;;;;;;;;;;;14.06;91.82;100689.97;4858224;29;19929;-58
2021/10/20 04:02:09;;;;;;;;;;;;;;;14.06;91.45;100691.75;4860658;29;19935;-57
2021/10/20 04:04:36;;;;;;;;;;;;;;;14.12;91.61;100699.19;4861588;29;19932;-57
2021/10/20 04:07:03;;;;;;;;;;;;;;;14.27;90.42;100675.91;4875858;29;20277;-59
2021/10/20 04:09:30;;;;;;;;;;;;;;;14.19;91.01;100681.84;4845026;29;19928;-57
2021/10/20 04:11:56;;;;;;;;;;;;;;;14.12;91.50;100688.59;4860061;29;19984;-59
2021/10/20 04:14:23;;;;;;;;;;;;;;;14.10;91.78;100674.69;4861174;29;19956;-57
2021/10/20 04:16:50;;;;;;;;;;;;;;;14.15;91.65;100675.97;4860212;29;19935;-52
2021/10/20 04:19:17;;;;;;;;;;;;;;;14.08;92.43;100671.31;4860093;29;19928;-48
2021/10/20 04:21:44;;;;;;;;;;;;;;;14.16;91.57;100668.88;4858794;29;19932;-48
2021/10/20 04:24:10;;;;;;;;;;;;;;;14.15;91.69;100644.25;4859461;29;20329;-48
2021/10/20 04:26:37;;;;;;;;;;;;;;;14.20;91.86;100649.13;4864774;29;19934;-49
2021/10/20 04:29:03;;;;;;;;;;;;;;;14.14;91.97;100639.09;4878752;29;19984;-47
2021/10/20 04:31:30;;;;;;;;;;;;;;;14.30;91.36;100644.78;4875444;29;19943;-46
2021/10/20 04:33:57;;;;;;;;;;;;;;;14.19;91.88;100640.38;4877100;29;20292;-46
2021/10/20 04:36:24;;;;;;;;;;;;;;;14.29;91.42;100621.94;4862488;29;19928;-50
2021/10/20 04:38:50;;;;;;;;;;;;;;;14.20;91.84;100620.03;4862986;29;19927;-47
2021/10/20 04:41:17;;;;;;;;;;;;;;;14.46;90.58;100617.00;4879194;29;19927;-50
2021/10/20 04:43:43;;;;;;;;;;;;;;;14.41;90.80;100617.41;4879286;29;19932;-48
2021/10/20 04:46:10;;;;;;;;;;;;;;;14.36;91.19;100631.00;4862644;29;19928;-46
2021/10/20 04:48:37;;;;;;;;;;;;;;;14.28;91.43;100614.94;4878898;29;19931;-47
2021/10/20 04:51:03;;;;;;;;;;;;;;;14.31;91.21;100619.97;4876176;29;19928;-50
2021/10/20 04:53:30;;;;;;;;;;;;;;;14.30;91.46;100618.31;4875799;29;19928;-49
2021/10/20 04:55:57;;;;;;;;;;;;;;;14.47;90.34;100608.09;4859971;29;19935;-48
2021/10/20 04:58:23;;;;;;;;;;;;;;;14.39;90.94;100602.63;4875494;29;19932;-48
2021/10/20 05:00:50;;;;;;;;;;;;;;;14.34;90.95;100595.94;4876226;29;19927;-52
2021/10/20 05:03:17;;;;;;;;;;;;;;;14.36;90.32;100585.22;4879089;29;19934;-52
2021/10/20 05:05:43;;;;;;;;;;;;;;;14.41;90.09;100590.09;4878108;29;20062;-48
2021/10/20 05:08:10;;;;;;;;;;;;;;;14.37;90.52;100590.38;4862263;29;20546;-49
2021/10/20 05:10:37;;;;;;;;;;;;;;;14.44;89.77;100577.47;4879115;29;19927;-52
2021/10/20 05:13:04;;;;;;;;;;;;;;;14.45;89.90;100573.00;4877838;29;19927;-50
2021/10/20 05:15:31;;;;;;;;;;;;;;;14.41;89.78;100564.50;4878967;29;20448;-49
2021/10/20 05:17:58;;;;;;;;;;;;;;;14.46;90.02;100574.69;4879022;29;19928;-52
2021/10/20 05:20:24;;;;;;;;;;;;;;;14.39;90.56;100570.88;4862514;29;20435;-49
2021/10/20 05:22:51;;;;;;;;;;;;;;;14.40;90.21;100561.97;4879029;29;20390;-49
2021/10/20 05:25:19;;;;;;;;;;;;;;;14.36;90.24;100556.13;4876420;29;19932;-48
2021/10/20 05:27:45;;;;;;;;;;;;;;;14.32;90.70;100555.53;4859813;29;20407;-49
2021/10/20 05:30:12;;;;;;;;;;;;;;;14.28;90.67;100564.69;4862181;29;19971;-50
2021/10/20 05:32:39;;;;;;;;;;;;;;;14.31;90.32;100553.84;4882456;29;19928;-51
2021/10/20 05:35:06;;;;;;;;;;;;;;;14.37;90.20;100550.69;4882165;29;19932;-50
2021/10/20 05:37:33;;;;;;;;;;;;;;;14.34;90.70;100550.97;4882421;29;19939;-51
2021/10/20 05:39:59;;;;;;;;;;;;;;;14.23;91.61;100551.00;4882101;29;19928;-50
2021/10/20 05:42:26;;;;;;;;;;;;;;;14.27;90.95;100549.78;4882472;29;19931;-57
2021/10/20 05:44:53;;;;;;;;;;;;;;;14.31;90.93;100542.44;4882560;29;19935;-58
2021/10/20 05:47:19;;;;;;;;;;;;;;;14.23;91.56;100547.53;4882398;29;19928;-58
2021/10/20 05:49:47;;;;;;;;;;;;;;;14.29;90.73;100542.56;4881376;29;19983;-58
2021/10/20 05:52:13;;;;;;;;;;;;;;;14.25;91.14;100537.66;4882525;29;20418;-57
2021/10/20 05:54:40;;;;;;;;;;;;;;;14.20;91.47;100552.13;4882342;29;20489;-57
2021/10/20 05:57:07;;;;;;;;;;;;;;;14.20;91.09;100548.63;4865694;29;19934;-58
2021/10/20 05:59:33;;;;;;;;;;;;;;;14.35;90.45;100549.97;4882317;29;19966;-58
2021/10/20 06:02:00;;;;;;;;;;;;;;;14.32;90.64;100546.75;4882213;29;19964;-60
2021/10/20 06:04:27;;;;;;;;;;;;;;;14.20;91.27;100530.13;4882218;29;19995;-58
2021/10/20 06:06:54;;;;;;;;;;;;;;;14.22;91.06;100520.28;4865739;29;19979;-59
2021/10/20 06:09:26;;;;;;;;;;;;;;;14.22;91.08;100522.91;4882096;29;20307;-58
2021/10/20 06:11:53;;;;;;;;;;;;;;;14.21;90.74;100521.22;4864477;29;19932;-58
2021/10/20 06:14:20;;;;;;;;;;;;;;;14.21;91.28;100523.88;4878788;29;20463;-58
2021/10/20 06:16:47;;;;;;;;;;;;;;;14.24;91.62;100507.75;4862533;29;19944;-58
2021/10/20 06:19:13;;;;;;;;;;;;;;;14.19;91.72;100504.66;4881795;29;19931;-58
2021/10/20 06:21:40;;;;;;;;;;;;;;;14.17;91.47;100506.59;4864835;29;19935;-58
2021/10/20 06:24:07;;;;;;;;;;;;;;;14.15;91.97;100503.22;4881279;29;19932;-58
2021/10/20 06:26:33;;;;;;;;;;;;;;;14.22;91.68;100506.19;4881591;29;19966;-59
2021/10/20 06:29:00;;;;;;;;;;;;;;;14.29;91.16;100494.09;4881802;29;19984;-59
2021/10/20 06:31:27;;;;;;;;;;;;;;;14.28;90.96;100498.56;4882012;29;19987;-57
2021/10/20 06:33:53;;;;;;;;;;;;;;;14.29;91.12;100513.47;4881786;29;19963;-57
2021/10/20 06:36:20;;;;;;;;;;;;;;;14.40;90.26;100506.41;4879207;29;19927;-58
2021/10/20 06:38:47;;;;;;;;;;;;;;;14.39;90.90;100489.72;4878880;29;19928;-58
2021/10/20 06:41:14;;;;;;;;;;;;;;;14.30;91.36;100488.72;4878163;29;19979;-49
2021/10/20 06:43:41;;;;;;;;;;;;;;;14.35;90.86;100490.94;4861536;29;19956;-50
2021/10/20 06:46:08;;;;;;;;;;;;;;;14.37;90.97;100489.84;4877427;29;20605;-48
2021/10/20 06:48:36;;;;;;;;;;;;;;;14.33;91.68;100501.66;4880915;29;20285;-47
2021/10/20 06:51:02;;;;;;;;;;;;;;;14.36;91.54;100501.38;4881122;29;20411;-57
2021/10/20 06:53:29;;;;;;;;;;;;;;;14.46;91.24;100490.00;4881006;29;19928;-48
2021/10/20 06:55:56;;;;;;;;;;;;;;;14.43;91.58;100482.34;4881420;29;19995;-48
2021/10/20 06:58:22;;;;;;;;;;;;;;;14.39;91.62;100467.72;4862063;29;19932;-52
2021/10/20 07:00:49;;;;;;;;;;;;;;;14.44;91.47;100460.19;4877595;29;19932;-51
2021/10/20 07:03:16;;;;;;;;;;;;;;;14.46;91.63;100469.66;4880267;29;19944;-52
2021/10/20 07:05:43;;;;;;;;;;;;;;;14.46;92.05;100485.53;4880973;29;19932;-58
2021/10/20 07:08:09;;;;;;;;;;;;;;;14.51;91.56;100483.34;4880949;29;19928;-58
2021/10/20 07:10:36;;;;;;;;;;;;;;;14.58;91.40;100493.41;4880693;29;20348;-58
2021/10/20 07:13:03;;;;;;;;;;;;;;;14.63;91.50;100507.06;4880569;29;19935;-58
2021/10/20 07:15:30;;;;;;;;;;;;;;;14.63;91.75;100507.94;4879849;29;19928;-48
2021/10/20 07:17:57;;;;;;;;;;;;;;;14.59;92.59;100505.63;4880971;29;20014;-49
2021/10/20 07:20:24;;;;;;;;;;;;;;;14.68;91.53;100497.78;4878284;29;19928;-47
2021/10/20 07:22:50;;;;;;;;;;;;;;;14.69;91.70;100501.25;4878811;29;19932;-48
2021/10/20 07:25:18;;;;;;;;;;;;;;;14.63;92.01;100491.19;4879779;29;19950;-48
2021/10/20 07:27:46;;;;;;;;;;;;;;;14.73;91.86;100475.38;4879496;29;20432;-49
2021/10/20 07:30:12;;;;;;;;;;;;;;;14.67;92.47;100440.53;4880709;29;19928;-46
2021/10/20 07:32:40;;;;;;;;;;;;;;;14.75;92.00;100431.06;4877812;29;19928;-46
2021/10/20 07:35:10;;;;;;;;;;;;;;;14.82;93.22;100451.56;4861594;29;20373;-49
2021/10/20 07:37:37;;;;;;;;;;;;;;;14.89;92.72;100441.25;4876705;29;19928;-49
2021/10/20 07:40:04;;;;;;;;;;;;;;;15.03;91.93;100440.00;4877898;29;19983;-49
2021/10/20 07:42:32;;;;;;;;;;;;;;;15.05;92.12;100443.34;4879401;29;19983;-51
2021/10/20 07:44:59;;;;;;;;;;;;;;;15.09;91.38;100391.78;4880461;29;19935;-47
2021/10/20 07:47:26;;;;;;;;;;;;;;;15.07;92.58;100414.91;4877919;29;19994;-47
2021/10/20 07:49:53;;;;;;;;;;;;;;;15.02;92.83;100404.75;4878392;29;19932;-49
2021/10/20 07:52:23;;;;;;;;;;;;;;;14.95;92.51;100385.09;4877582;29;19959;-47
2021/10/20 07:54:50;;;;;;;;;;;;;;;14.97;93.06;100375.22;4876486;29;19936;-50
2021/10/20 07:57:16;;;;;;;;;;;;;;;14.96;93.49;100352.34;4876996;29;19932;-47
2021/10/20 07:59:43;;;;;;;;;;;;;;;14.95;94.69;100353.31;4876381;29;19936;-48
2021/10/20 08:02:10;;;;;;;;;;;;;;;14.93;95.47;100350.00;4860574;29;19932;-45
2021/10/20 08:04:37;;;;;;;;;;;;;;;14.93;95.25;100344.69;4880198;29;20435;-45
2021/10/20 08:07:03;;;;;;;;;;;;;;;14.88;95.50;100323.09;4863561;29;20410;-49
2021/10/20 08:09:30;;;;;;;;;;;;;;;14.94;95.68;100309.28;4878347;29;19935;-48
2021/10/20 08:11:56;;;;;;;;;;;;;;;14.93;95.59;100290.88;4877551;29;19931;-49
2021/10/20 08:14:23;;;;;;;;;;;;;;;14.87;96.10;100289.66;4879292;29;20341;-46
2021/10/20 08:16:51;;;;;;;;;;;;;;;14.91;95.77;100277.81;4876312;29;19931;-46
2021/10/20 08:19:18;;;;;;;;;;;;;;;14.92;95.90;100287.41;4878032;29;20387;-47
2021/10/20 08:21:45;;;;;;;;;;;;;;;15.00;95.25;100298.13;4879854;29;20302;-46
2021/10/20 08:24:12;;;;;;;;;;;;;;;14.94;96.06;100314.56;4879401;29;20303;-58
2021/10/20 08:26:38;;;;;;;;;;;;;;;15.00;95.79;100318.50;4878990;29;19935;-58
2021/10/20 08:29:07;;;;;;;;;;;;;;;14.91;96.65;100300.81;4863051;29;20030;-57
2021/10/20 08:31:34;;;;;;;;;;;;;;;14.96;96.83;100307.34;4863140;29;20345;-57
2021/10/20 08:34:00;;;;;;;;;;;;;;;15.01;97.19;100310.41;4879152;29;20426;-58
2021/10/20 08:36:27;;;;;;;;;;;;;;;14.98;97.35;100318.63;4860618;29;19983;-57
2021/10/20 08:38:53;;;;;;;;;;;;;;;15.03;98.08;100318.19;4878488;29;19928;-57
2021/10/20 08:41:20;;;;;;;;;;;;;;;15.12;98.03;100327.09;4879381;29;19963;-58
2021/10/20 08:43:47;;;;;;;;;;;;;;;15.12;97.70;100312.06;4878421;29;19935;-58
2021/10/20 08:46:14;;;;;;;;;;;;;;;15.06;97.97;100315.25;4861232;29;19935;-58
2021/10/20 08:48:41;;;;;;;;;;;;;;;15.11;97.59;100302.44;4875154;29;19932;-57
2021/10/20 08:51:08;;;;;;;;;;;;;;;15.11;96.95;100309.56;4875180;29;19932;-58
2021/10/20 08:53:35;;;;;;;;;;;;;;;15.17;96.23;100306.31;4858962;29;20665;-57
2021/10/20 08:56:01;;;;;;;;;;;;;;;15.19;96.24;100304.38;4878712;29;19967;-57
2021/10/20 08:58:28;;;;;;;;;;;;;;;15.17;96.26;100303.69;4874901;29;19953;-57
2021/10/20 09:00:56;;;;;;;;;;;;;;;15.32;96.13;100299.59;4859424;29;20443;-49
2021/10/20 09:03:23;;;;;;;;;;;;;;;15.53;94.73;100299.38;4862824;29;19935;-50
2021/10/20 09:05:49;;;;;;;;;;;;;;;15.59;95.21;100289.19;4878959;29;19934;-49
2021/10/20 09:08:16;;;;;;;;;;;;;;;15.91;93.82;100295.91;4879033;29;19935;-50
2021/10/20 09:10:44;;;;;;;;;;;;;;;16.11;92.97;100293.97;4862536;29;20254;-51
2021/10/20 09:13:11;;;;;;;;;;;;;;;16.34;91.14;100289.88;4879217;29;20371;-53
2021/10/20 09:15:37;;;;;;;;;;;;;;;16.62;89.51;100295.13;4877974;29;19935;-53
2021/10/20 09:18:05;;;;;;;;;;;;;;;16.59;90.06;100292.75;4877162;29;20357;-52
2021/10/20 09:20:33;;;;;;;;;;;;;;;16.64;89.17;100289.66;4874469;29;20312;-49
2021/10/20 09:23:01;;;;;;;;;;;;;;;16.60;88.43;100285.66;4878172;29;19980;-49
2021/10/20 09:25:35;;;;;;;;;;;;;;;16.57;89.00;100286.78;4862239;29;19999;-47
2021/10/20 09:28:03;;;;;;;;;;;;;;;16.55;88.93;100272.81;4876264;29;19935;-49
2021/10/20 09:30:30;;;;;;;;;;;;;;;16.52;88.49;100281.94;4874394;29;20379;-49
2021/10/20 09:32:58;;;;;;;;;;;;;;;16.41;88.29;100270.72;4858918;29;19938;-49
2021/10/20 09:35:27;;;;;;;;;;;;;;;16.41;88.46;100266.25;4875229;29;19966;-49
2021/10/20 09:37:58;;;;;;;;;;;;;;;16.41;88.68;100244.19;4874628;29;19928;-48
2021/10/20 09:40:26;;;;;;;;;;;;;;;16.45;87.96;100266.78;4876112;29;20026;-50
2021/10/20 09:42:54;;;;;;;;;;;;;;;16.41;88.69;100260.94;4877001;29;19954;-48
2021/10/20 09:45:21;;;;;;;;;;;;;;;16.51;88.12;100272.31;4874135;29;19928;-47
2021/10/20 09:47:48;;;;;;;;;;;;;;;16.62;87.90;100263.28;4874476;29;19932;-51
2021/10/20 09:50:39;;;;;;;;;;;;;;;16.66;88.03;100261.97;4875405;29;19992;-50
2021/10/20 09:53:06;;;;;;;;;;;;;;;16.62;88.47;100263.28;4874201;29;20308;-52
2021/10/20 09:55:32;;;;;;;;;;;;;;;16.69;87.74;100268.81;4858527;29;20400;-50
2021/10/20 09:58:03;;;;;;;;;;;;;;;16.71;87.20;100277.44;4877595;29;19928;-48
2021/10/20 10:00:30;;;;;;;;;;;;;;;16.79;87.51;100268.72;4878791;29;19934;-47
2021/10/20 10:02:57;;;;;;;;;;;;;;;16.79;87.71;100268.72;4875430;29;20071;-49
2021/10/20 10:05:25;;;;;;;;;;;;;;;16.78;88.00;100270.53;4875901;29;19927;-50
2021/10/20 10:07:51;;;;;;;;;;;;;;;16.93;87.43;100260.19;4878206;29;20410;-49
2021/10/20 10:10:18;;;;;;;;;;;;;;;17.14;87.36;100273.13;4875923;29;19932;-50
2021/10/20 10:12:45;;;;;;;;;;;;;;;17.39;85.72;100266.13;4874308;29;20039;-51
2021/10/20 10:15:12;;;;;;;;;;;;;;;17.61;86.12;100257.75;4875760;29;20556;-51
2021/10/20 10:17:53;;;;;;;;;;;;;;;17.62;85.14;100257.59;4880002;29;20345;-52
2021/10/20 10:20:20;;;;;;;;;;;;;;;17.71;84.23;100253.97;4880586;29;19927;-48
2021/10/20 10:22:52;;;;;;;;;;;;;;;17.67;84.25;100252.63;4881419;29;19932;-49
2021/10/20 10:25:38;;;;;;;;;;;;;;;17.62;84.76;100257.59;4878551;29;19980;-52
2021/10/20 10:28:06;;;;;;;;;;;;;;;17.57;84.05;100262.56;4872641;29;19939;-53
2021/10/20 10:30:49;;;;;;;;;;;;;;;17.44;84.72;100260.34;4872647;29;19932;-46
2021/10/20 10:33:23;;;;;;;;;;;;;;;17.40;83.88;100265.13;4860008;29;19928;-52
2021/10/20 10:36:09;;;;;;;;;;;;;;;17.40;84.87;100265.13;4860142;29;20026;-50
2021/10/20 10:38:36;;;;;;;;;;;;;;;17.35;84.24;100261.28;4858410;29;19936;-49
2021/10/20 10:41:23;;;;;;;;;;;;;;;17.28;84.63;100265.59;4874039;29;19931;-56
2021/10/20 10:44:07;;;;;;;;;;;;;;;17.31;84.72;100250.13;4861277;29;19986;-57
2021/10/20 10:46:34;;;;;;;;;;;;;;;17.20;86.02;100255.72;4862702;29;19935;-57
2021/10/20 10:49:03;;;;;;;;;;;;;;;17.13;85.41;100252.03;4862710;29;19932;-57
2021/10/20 10:51:29;;;;;;;;;;;;;;;17.12;85.17;100248.53;4861875;29;19984;-56
2021/10/20 10:53:59;;;;;;;;;;;;;;;17.27;84.97;100230.19;4859655;29;19928;-57
2021/10/20 10:56:26;;;;;;;;;;;;;;;17.32;85.13;100243.84;4875249;29;19935;-56
2021/10/20 10:58:58;;;;;;;;;;;;;;;17.29;85.18;100238.00;4862609;29;19970;-56
2021/10/20 11:01:43;;;;;;;;;;;;;;;17.33;84.27;100231.38;4876830;29;19951;-57
2021/10/20 11:04:20;;;;;;;;;;;;;;;17.39;84.31;100238.72;4876387;29;19928;-57
2021/10/20 11:06:47;;;;;;;;;;;;;;;17.34;84.76;100236.56;4862505;29;19932;-57
2021/10/20 11:09:17;;;;;;;;;;;;;;;17.31;84.21;100223.56;4876498;29;20018;-57
2021/10/20 11:11:52;;;;;;;;;;;;;;;17.25;84.45;100229.53;4862495;29;19935;-57
2021/10/20 11:14:19;;;;;;;;;;;;;;;17.23;84.26;100220.88;4862459;29;19928;-57
2021/10/20 11:16:46;;;;;;;;;;;;;;;17.36;84.34;100234.56;4862478;29;19999;-56
2021/10/20 11:19:13;;;;;;;;;;;;;;;17.32;84.04;100227.06;4861092;29;19928;-57
2021/10/20 11:21:40;;;;;;;;;;;;;;;17.33;84.86;100242.00;4861301;29;20360;-57
2021/10/20 11:24:07;;;;;;;;;;;;;;;17.30;84.90;100234.34;4862008;29;19943;-57
2021/10/20 11:26:35;;;;;;;;;;;;;;;17.29;84.12;100240.66;4865165;29;19932;-56
2021/10/20 11:29:06;;;;;;;;;;;;;;;17.40;84.16;100238.56;4880798;29;20400;-57
2021/10/20 11:31:36;;;;;;;;;;;;;;;17.25;83.96;100229.53;4880856;29;19932;-57
2021/10/20 11:34:18;;;;;;;;;;;;;;;17.36;84.02;100237.22;4880754;29;19955;-57
2021/10/20 11:36:45;;;;;;;;;;;;;;;17.38;84.54;100237.06;4880483;29;19974;-58
2021/10/20 11:39:12;;;;;;;;;;;;;;;17.41;83.94;100231.44;4880424;29;19927;-57
2021/10/20 11:41:54;;;;;;;;;;;;;;;17.44;83.67;100236.44;4878977;29;19935;-58
2021/10/20 11:44:25;;;;;;;;;;;;;;;17.36;83.85;100221.25;4880180;29;19944;-58
2021/10/20 11:46:55;;;;;;;;;;;;;;;17.41;84.05;100228.78;4880203;29;20488;-53
2021/10/20 11:49:22;;;;;;;;;;;;;;;17.37;84.24;100238.88;4880201;29;19928;-57
2021/10/20 11:51:49;;;;;;;;;;;;;;;17.37;83.99;100228.25;4880766;29;20367;-58
2021/10/20 11:54:17;;;;;;;;;;;;;;;17.33;84.08;100228.72;4880010;29;20337;-57
2021/10/20 11:56:54;;;;;;;;;;;;;;;17.39;83.90;100239.53;4877772;29;19939;-58
2021/10/20 11:59:21;;;;;;;;;;;;;;;17.35;84.38;100224.09;4859048;29;19928;-58
2021/10/20 12:01:48;;;;;;;;;;;;;;;17.29;84.33;100214.94;4879536;29;20023;-57
2021/10/20 12:04:16;;;;;;;;;;;;;;;17.34;84.27;100215.28;4863696;29;19928;-58
2021/10/20 12:06:43;;;;;;;;;;;;;;;17.28;85.10;100209.78;4880010;29;19928;-58
2021/10/20 12:09:13;;;;;;;;;;;;;;;17.30;84.83;100216.59;4878682;29;19928;-57
2021/10/20 12:11:39;;;;;;;;;;;;;;;17.26;84.78;100209.09;4880250;29;19928;-51
2021/10/20 12:14:07;;;;;;;;;;;;;;;17.23;84.77;100218.22;4879794;29;19935;-52
2021/10/20 12:16:34;;;;;;;;;;;;;;;17.27;84.10;100214.25;4879904;29;20311;-51
2021/10/20 12:19:02;;;;;;;;;;;;;;;17.13;84.79;100207.69;4877892;29;19928;-47
2021/10/20 12:21:30;;;;;;;;;;;;;;;17.19;84.89;100203.56;4879265;29;19928;-51
2021/10/20 12:23:57;;;;;;;;;;;;;;;17.20;85.19;100197.28;4879345;29;19932;-50
2021/10/20 12:26:28;;;;;;;;;;;;;;;17.19;85.00;100198.25;4862709;29;20403;-48
2021/10/20 12:28:55;;;;;;;;;;;;;;;17.15;86.43;100183.63;4878588;29;20380;-51
2021/10/20 12:31:22;;;;;;;;;;;;;;;17.11;86.57;100190.25;4879689;29;20438;-51
2021/10/20 12:33:51;;;;;;;;;;;;;;;17.08;86.13;100177.31;4879530;29;19956;-52
2021/10/20 12:36:18;;;;;;;;;;;;;;;17.00;86.19;100176.28;4878261;29;19931;-51
2021/10/20 12:38:45;;;;;;;;;;;;;;;17.11;86.57;100166.34;4879545;29;20400;-52